sensor_id;sensor_type;location;lat;lon;timestamp;temperature;humidity
59148;DHT22;44930;52.878;6.168;2024-02-16T00:02:17;11.20;99.90
59148;DHT22;44930;52.878;6.168;2024-02-16T00:04:43;11.30;99.90
59148;DHT22;44930;52.878;6.168;2024-02-16T00:07:09;11.20;99.90
59148;DHT22;44930;52.878;6.168;2024-02-16T00:09:35;11.20;99.90
59148;DHT22;44930;52.878;6.168;2024-02-16T00:12:00;11.30;99.90
59148;DHT22;44930;52.878;6.168;2024-02-16T00:14:26;11.20;99.90
59148;DHT22;44930;52.878;6.168;2024-02-16T00:16:52;11.10;99.90
59148;DHT22;44930;52.878;6.168;2024-02-16T00:19:18;11.10;99.90
59148;DHT22;44930;52.878;6.168;2024-02-16T00:21:43;11.20;99.90
59148;DHT22;44930;52.878;6.168;2024-02-16T00:24:09;11.10;99.90
59148;DHT22;44930;52.878;6.168;2024-02-16T00:26:35;11.10;99.90
59148;DHT22;44930;52.878;6.168;2024-02-16T00:29:01;11.10;99.90
59148;DHT22;44930;52.878;6.168;2024-02-16T00:31:26;11.10;99.90
59148;DHT22;44930;52.878;6.168;2024-02-16T00:33:52;11.00;99.90
59148;DHT22;44930;52.878;6.168;2024-02-16T00:36:18;11.10;99.90
59148;DHT22;44930;52.878;6.168;2024-02-16T00:38:43;11.10;99.90
59148;DHT22;44930;52.878;6.168;2024-02-16T00:41:20;11.00;99.90
59148;DHT22;44930;52.878;6.168;2024-02-16T00:43:45;11.10;99.90
59148;DHT22;44930;52.878;6.168;2024-02-16T00:46:11;11.20;99.90
59148;DHT22;44930;52.878;6.168;2024-02-16T00:48:37;11.10;99.90
59148;DHT22;44930;52.878;6.168;2024-02-16T00:51:02;11.10;99.90
59148;DHT22;44930;52.878;6.168;2024-02-16T00:53:28;11.00;99.90
59148;DHT22;44930;52.878;6.168;2024-02-16T00:55:54;11.10;99.90
59148;DHT22;44930;52.878;6.168;2024-02-16T01:00:46;11.00;99.90
59148;DHT22;44930;52.878;6.168;2024-02-16T01:03:12;11.10;99.90
59148;DHT22;44930;52.878;6.168;2024-02-16T01:05:39;11.10;99.90
59148;DHT22;44930;52.878;6.168;2024-02-16T01:08:05;11.00;99.90
59148;DHT22;44930;52.878;6.168;2024-02-16T01:10:31;11.00;99.90
59148;DHT22;44930;52.878;6.168;2024-02-16T01:12:57;11.10;99.90
59148;DHT22;44930;52.878;6.168;2024-02-16T01:17:48;11.00;99.90
59148;DHT22;44930;52.878;6.168;2024-02-16T01:20:16;11.00;99.90
59148;DHT22;44930;52.878;6.168;2024-02-16T01:22:41;11.00;99.90
59148;DHT22;44930;52.878;6.168;2024-02-16T01:25:07;10.90;99.90
59148;DHT22;44930;52.878;6.168;2024-02-16T01:27:34;10.90;99.90
59148;DHT22;44930;52.878;6.168;2024-02-16T01:30:01;10.90;99.90
59148;DHT22;44930;52.878;6.168;2024-02-16T01:32:26;10.80;99.90
59148;DHT22;44930;52.878;6.168;2024-02-16T01:34:52;10.90;99.90
59148;DHT22;44930;52.878;6.168;2024-02-16T01:37:18;10.90;99.90
59148;DHT22;44930;52.878;6.168;2024-02-16T01:39:44;10.80;99.90
59148;DHT22;44930;52.878;6.168;2024-02-16T01:42:10;10.90;99.90
59148;DHT22;44930;52.878;6.168;2024-02-16T01:44:36;10.80;99.90
59148;DHT22;44930;52.878;6.168;2024-02-16T01:47:03;10.30;99.90
59148;DHT22;44930;52.878;6.168;2024-02-16T01:49:29;10.80;99.90
59148;DHT22;44930;52.878;6.168;2024-02-16T01:51:56;10.80;99.90
59148;DHT22;44930;52.878;6.168;2024-02-16T01:54:22;10.80;99.90
59148;DHT22;44930;52.878;6.168;2024-02-16T01:56:48;10.70;99.90
59148;DHT22;44930;52.878;6.168;2024-02-16T01:59:16;10.80;99.90
59148;DHT22;44930;52.878;6.168;2024-02-16T02:04:08;10.70;99.90
59148;DHT22;44930;52.878;6.168;2024-02-16T02:06:33;10.70;99.90
59148;DHT22;44930;52.878;6.168;2024-02-16T02:08:59;10.80;99.90
59148;DHT22;44930;52.878;6.168;2024-02-16T02:11:25;10.70;99.90
59148;DHT22;44930;52.878;6.168;2024-02-16T02:13:50;10.60;99.90
59148;DHT22;44930;52.878;6.168;2024-02-16T02:16:16;10.70;99.90
59148;DHT22;44930;52.878;6.168;2024-02-16T02:18:44;10.60;99.90
59148;DHT22;44930;52.878;6.168;2024-02-16T02:21:09;10.60;99.90
59148;DHT22;44930;52.878;6.168;2024-02-16T02:26:01;10.60;99.90
59148;DHT22;44930;52.878;6.168;2024-02-16T02:28:27;10.60;99.90
59148;DHT22;44930;52.878;6.168;2024-02-16T02:30:54;10.60;99.90
59148;DHT22;44930;52.878;6.168;2024-02-16T02:33:21;10.60;99.90
59148;DHT22;44930;52.878;6.168;2024-02-16T02:35:46;10.60;99.90
59148;DHT22;44930;52.878;6.168;2024-02-16T02:38:12;10.60;99.90
59148;DHT22;44930;52.878;6.168;2024-02-16T02:40:38;10.60;99.90
59148;DHT22;44930;52.878;6.168;2024-02-16T02:43:04;10.60;99.90
59148;DHT22;44930;52.878;6.168;2024-02-16T02:45:31;10.80;99.90
59148;DHT22;44930;52.878;6.168;2024-02-16T02:47:57;10.50;99.90
59148;DHT22;44930;52.878;6.168;2024-02-16T02:50:22;10.70;99.90
59148;DHT22;44930;52.878;6.168;2024-02-16T02:52:49;10.50;99.90
59148;DHT22;44930;52.878;6.168;2024-02-16T02:55:15;10.40;99.90
59148;DHT22;44930;52.878;6.168;2024-02-16T02:57:40;10.40;99.90
59148;DHT22;44930;52.878;6.168;2024-02-16T03:00:07;10.40;99.90
59148;DHT22;44930;52.878;6.168;2024-02-16T03:05:07;10.40;99.90
59148;DHT22;44930;52.878;6.168;2024-02-16T03:07:33;10.40;99.90
59148;DHT22;44930;52.878;6.168;2024-02-16T03:12:25;10.40;99.90
59148;DHT22;44930;52.878;6.168;2024-02-16T03:14:52;10.50;99.90
59148;DHT22;44930;52.878;6.168;2024-02-16T03:19:44;10.40;99.90
59148;DHT22;44930;52.878;6.168;2024-02-16T03:22:09;10.40;99.90
59148;DHT22;44930;52.878;6.168;2024-02-16T03:24:35;10.50;99.90
59148;DHT22;44930;52.878;6.168;2024-02-16T03:29:27;10.50;99.90
59148;DHT22;44930;52.878;6.168;2024-02-16T03:31:53;10.50;99.90
59148;DHT22;44930;52.878;6.168;2024-02-16T03:34:19;10.60;99.90
59148;DHT22;44930;52.878;6.168;2024-02-16T03:36:44;10.50;99.90
59148;DHT22;44930;52.878;6.168;2024-02-16T03:39:10;10.50;99.90
59148;DHT22;44930;52.878;6.168;2024-02-16T03:41:36;10.50;99.90
59148;DHT22;44930;52.878;6.168;2024-02-16T03:44:01;10.60;99.90
59148;DHT22;44930;52.878;6.168;2024-02-16T03:46:27;10.50;99.90
59148;DHT22;44930;52.878;6.168;2024-02-16T03:48:53;10.50;99.90
59148;DHT22;44930;52.878;6.168;2024-02-16T03:51:18;10.50;99.90
59148;DHT22;44930;52.878;6.168;2024-02-16T03:53:44;10.50;99.90
59148;DHT22;44930;52.878;6.168;2024-02-16T03:56:19;10.50;99.90
59148;DHT22;44930;52.878;6.168;2024-02-16T04:01:10;10.40;99.90
59148;DHT22;44930;52.878;6.168;2024-02-16T04:03:36;10.40;99.90
59148;DHT22;44930;52.878;6.168;2024-02-16T04:10:55;10.40;99.90
59148;DHT22;44930;52.878;6.168;2024-02-16T04:13:21;10.50;99.90
59148;DHT22;44930;52.878;6.168;2024-02-16T04:15:47;10.50;99.90
59148;DHT22;44930;52.878;6.168;2024-02-16T04:18:12;10.40;99.90
59148;DHT22;44930;52.878;6.168;2024-02-16T04:20:38;10.40;99.90
59148;DHT22;44930;52.878;6.168;2024-02-16T04:23:06;10.60;99.90
59148;DHT22;44930;52.878;6.168;2024-02-16T04:25:32;10.40;99.90
59148;DHT22;44930;52.878;6.168;2024-02-16T04:27:57;10.50;99.90
59148;DHT22;44930;52.878;6.168;2024-02-16T04:30:23;10.40;99.90
59148;DHT22;44930;52.878;6.168;2024-02-16T04:32:48;10.40;99.90
59148;DHT22;44930;52.878;6.168;2024-02-16T04:35:14;10.40;99.90
59148;DHT22;44930;52.878;6.168;2024-02-16T04:37:41;10.40;99.90
59148;DHT22;44930;52.878;6.168;2024-02-16T04:40:06;10.40;99.90
59148;DHT22;44930;52.878;6.168;2024-02-16T04:42:33;10.40;99.90
59148;DHT22;44930;52.878;6.168;2024-02-16T04:47:27;10.40;99.90
59148;DHT22;44930;52.878;6.168;2024-02-16T04:49:53;10.40;99.90
59148;DHT22;44930;52.878;6.168;2024-02-16T04:52:18;10.40;99.90
59148;DHT22;44930;52.878;6.168;2024-02-16T04:54:44;10.30;99.90
59148;DHT22;44930;52.878;6.168;2024-02-16T04:57:10;10.40;99.90
59148;DHT22;44930;52.878;6.168;2024-02-16T05:02:01;10.30;99.90
59148;DHT22;44930;52.878;6.168;2024-02-16T05:04:29;10.30;99.90
59148;DHT22;44930;52.878;6.168;2024-02-16T05:06:55;10.30;99.90
59148;DHT22;44930;52.878;6.168;2024-02-16T05:09:23;10.20;99.90
59148;DHT22;44930;52.878;6.168;2024-02-16T05:11:50;10.20;99.90
59148;DHT22;44930;52.878;6.168;2024-02-16T05:14:16;10.20;99.90
59148;DHT22;44930;52.878;6.168;2024-02-16T05:16:46;10.10;99.90
59148;DHT22;44930;52.878;6.168;2024-02-16T05:19:12;10.20;99.90
59148;DHT22;44930;52.878;6.168;2024-02-16T05:21:37;10.30;99.90
59148;DHT22;44930;52.878;6.168;2024-02-16T05:24:03;10.30;99.90
59148;DHT22;44930;52.878;6.168;2024-02-16T05:26:29;10.20;99.90
59148;DHT22;44930;52.878;6.168;2024-02-16T05:28:54;10.30;99.90
59148;DHT22;44930;52.878;6.168;2024-02-16T05:33:48;10.30;99.90
59148;DHT22;44930;52.878;6.168;2024-02-16T05:36:19;10.20;99.90
59148;DHT22;44930;52.878;6.168;2024-02-16T05:38:46;10.40;99.90
59148;DHT22;44930;52.878;6.168;2024-02-16T05:41:12;10.30;99.90
59148;DHT22;44930;52.878;6.168;2024-02-16T05:43:38;10.40;99.90
59148;DHT22;44930;52.878;6.168;2024-02-16T05:46:04;10.40;99.90
59148;DHT22;44930;52.878;6.168;2024-02-16T05:48:33;10.50;99.90
59148;DHT22;44930;52.878;6.168;2024-02-16T05:51:03;10.40;99.90
59148;DHT22;44930;52.878;6.168;2024-02-16T05:53:31;10.40;99.90
59148;DHT22;44930;52.878;6.168;2024-02-16T05:55:57;10.30;99.90
59148;DHT22;44930;52.878;6.168;2024-02-16T05:58:24;10.30;99.90
59148;DHT22;44930;52.878;6.168;2024-02-16T06:00:49;10.30;99.90
59148;DHT22;44930;52.878;6.168;2024-02-16T06:03:15;10.30;99.90
59148;DHT22;44930;52.878;6.168;2024-02-16T06:08:10;10.20;99.90
59148;DHT22;44930;52.878;6.168;2024-02-16T06:10:36;10.20;99.90
59148;DHT22;44930;52.878;6.168;2024-02-16T06:13:02;10.30;99.90
59148;DHT22;44930;52.878;6.168;2024-02-16T06:15:27;10.20;99.90
59148;DHT22;44930;52.878;6.168;2024-02-16T06:17:53;10.30;99.90
59148;DHT22;44930;52.878;6.168;2024-02-16T06:20:19;10.30;99.90
59148;DHT22;44930;52.878;6.168;2024-02-16T06:22:45;10.30;99.90
59148;DHT22;44930;52.878;6.168;2024-02-16T06:25:10;10.20;99.90
59148;DHT22;44930;52.878;6.168;2024-02-16T06:27:36;10.40;99.90
59148;DHT22;44930;52.878;6.168;2024-02-16T06:30:05;10.50;99.90
59148;DHT22;44930;52.878;6.168;2024-02-16T06:32:32;10.30;99.90
59148;DHT22;44930;52.878;6.168;2024-02-16T06:34:58;10.30;99.90
59148;DHT22;44930;52.878;6.168;2024-02-16T06:39:50;10.30;99.90
59148;DHT22;44930;52.878;6.168;2024-02-16T06:42:16;10.20;99.90
59148;DHT22;44930;52.878;6.168;2024-02-16T06:44:41;10.10;99.90
59148;DHT22;44930;52.878;6.168;2024-02-16T06:47:07;10.00;99.90
59148;DHT22;44930;52.878;6.168;2024-02-16T06:49:33;10.20;99.90
59148;DHT22;44930;52.878;6.168;2024-02-16T06:51:58;10.00;99.90
59148;DHT22;44930;52.878;6.168;2024-02-16T06:54:24;10.20;99.90
59148;DHT22;44930;52.878;6.168;2024-02-16T06:56:50;10.00;99.90
59148;DHT22;44930;52.878;6.168;2024-02-16T06:59:17;9.90;99.90
59148;DHT22;44930;52.878;6.168;2024-02-16T07:01:43;10.00;99.90
59148;DHT22;44930;52.878;6.168;2024-02-16T07:04:09;10.10;99.90
59148;DHT22;44930;52.878;6.168;2024-02-16T07:06:35;10.00;99.90
59148;DHT22;44930;52.878;6.168;2024-02-16T07:11:28;9.90;99.90
59148;DHT22;44930;52.878;6.168;2024-02-16T07:13:53;10.10;99.90
59148;DHT22;44930;52.878;6.168;2024-02-16T07:18:45;10.20;99.90
59148;DHT22;44930;52.878;6.168;2024-02-16T07:21:11;10.10;99.90
59148;DHT22;44930;52.878;6.168;2024-02-16T07:26:03;10.10;99.90
59148;DHT22;44930;52.878;6.168;2024-02-16T07:28:29;10.20;99.90
59148;DHT22;44930;52.878;6.168;2024-02-16T07:30:55;10.10;99.90
59148;DHT22;44930;52.878;6.168;2024-02-16T07:33:21;10.10;99.90
59148;DHT22;44930;52.878;6.168;2024-02-16T07:35:47;10.20;99.90
59148;DHT22;44930;52.878;6.168;2024-02-16T07:40:39;10.20;99.90
59148;DHT22;44930;52.878;6.168;2024-02-16T07:43:05;10.10;99.90
59148;DHT22;44930;52.878;6.168;2024-02-16T07:45:31;10.30;99.90
59148;DHT22;44930;52.878;6.168;2024-02-16T07:47:57;10.20;99.90
59148;DHT22;44930;52.878;6.168;2024-02-16T07:50:22;10.30;99.90
59148;DHT22;44930;52.878;6.168;2024-02-16T07:52:49;10.30;99.90
59148;DHT22;44930;52.878;6.168;2024-02-16T07:55:15;10.20;99.90
59148;DHT22;44930;52.878;6.168;2024-02-16T07:57:46;10.30;99.90
59148;DHT22;44930;52.878;6.168;2024-02-16T08:02:38;10.40;99.90
59148;DHT22;44930;52.878;6.168;2024-02-16T08:05:04;10.40;99.90
59148;DHT22;44930;52.878;6.168;2024-02-16T08:07:31;10.30;99.90
59148;DHT22;44930;52.878;6.168;2024-02-16T08:09:57;10.50;99.90
59148;DHT22;44930;52.878;6.168;2024-02-16T08:12:22;10.40;99.90
59148;DHT22;44930;52.878;6.168;2024-02-16T08:17:15;10.50;99.90
59148;DHT22;44930;52.878;6.168;2024-02-16T08:19:40;10.60;99.90
59148;DHT22;44930;52.878;6.168;2024-02-16T08:22:08;10.80;99.90
59148;DHT22;44930;52.878;6.168;2024-02-16T08:24:34;10.80;99.90
59148;DHT22;44930;52.878;6.168;2024-02-16T08:27:00;10.70;99.90
59148;DHT22;44930;52.878;6.168;2024-02-16T08:29:26;10.80;99.90
59148;DHT22;44930;52.878;6.168;2024-02-16T08:31:52;10.80;99.90
59148;DHT22;44930;52.878;6.168;2024-02-16T08:34:18;10.90;99.90
59148;DHT22;44930;52.878;6.168;2024-02-16T08:36:44;11.00;99.90
59148;DHT22;44930;52.878;6.168;2024-02-16T08:39:11;11.10;99.90
59148;DHT22;44930;52.878;6.168;2024-02-16T08:46:38;11.30;99.90
59148;DHT22;44930;52.878;6.168;2024-02-16T08:49:05;11.40;99.90
59148;DHT22;44930;52.878;6.168;2024-02-16T08:51:32;11.40;99.90
59148;DHT22;44930;52.878;6.168;2024-02-16T08:53:58;11.50;99.90
59148;DHT22;44930;52.878;6.168;2024-02-16T08:56:23;11.50;99.90
59148;DHT22;44930;52.878;6.168;2024-02-16T08:58:49;11.60;99.90
59148;DHT22;44930;52.878;6.168;2024-02-16T09:01:15;11.50;99.90
59148;DHT22;44930;52.878;6.168;2024-02-16T09:03:42;11.70;99.90
59148;DHT22;44930;52.878;6.168;2024-02-16T09:08:34;11.80;99.90
59148;DHT22;44930;52.878;6.168;2024-02-16T09:11:05;11.80;99.90
59148;DHT22;44930;52.878;6.168;2024-02-16T09:13:34;12.00;99.90
59148;DHT22;44930;52.878;6.168;2024-02-16T09:16:02;11.80;99.90
59148;DHT22;44930;52.878;6.168;2024-02-16T09:18:29;12.00;99.90
59148;DHT22;44930;52.878;6.168;2024-02-16T09:20:55;12.00;99.90
59148;DHT22;44930;52.878;6.168;2024-02-16T09:23:20;12.00;99.90
59148;DHT22;44930;52.878;6.168;2024-02-16T09:25:46;12.10;99.90
59148;DHT22;44930;52.878;6.168;2024-02-16T09:28:12;12.40;99.90
59148;DHT22;44930;52.878;6.168;2024-02-16T09:30:38;12.30;99.90
59148;DHT22;44930;52.878;6.168;2024-02-16T09:33:04;12.20;99.90
59148;DHT22;44930;52.878;6.168;2024-02-16T09:35:30;12.40;99.90
59148;DHT22;44930;52.878;6.168;2024-02-16T09:37:56;12.50;99.90
59148;DHT22;44930;52.878;6.168;2024-02-16T09:40:22;12.40;99.90
59148;DHT22;44930;52.878;6.168;2024-02-16T09:42:48;12.40;99.90
59148;DHT22;44930;52.878;6.168;2024-02-16T09:45:18;12.40;99.90
59148;DHT22;44930;52.878;6.168;2024-02-16T09:47:45;12.50;99.90
59148;DHT22;44930;52.878;6.168;2024-02-16T09:52:38;12.50;99.90
59148;DHT22;44930;52.878;6.168;2024-02-16T09:55:06;13.00;99.90
59148;DHT22;44930;52.878;6.168;2024-02-16T09:57:35;12.70;99.90
59148;DHT22;44930;52.878;6.168;2024-02-16T10:00:02;12.80;99.90
59148;DHT22;44930;52.878;6.168;2024-02-16T10:02:39;13.10;99.90
59148;DHT22;44930;52.878;6.168;2024-02-16T10:05:14;13.10;99.90
59148;DHT22;44930;52.878;6.168;2024-02-16T10:07:43;13.10;99.90
59148;DHT22;44930;52.878;6.168;2024-02-16T10:10:25;13.10;99.90
59148;DHT22;44930;52.878;6.168;2024-02-16T10:13:09;13.50;99.90
59148;DHT22;44930;52.878;6.168;2024-02-16T10:15:37;13.40;99.90
59148;DHT22;44930;52.878;6.168;2024-02-16T10:18:04;13.30;99.90
59148;DHT22;44930;52.878;6.168;2024-02-16T10:20:34;13.20;99.90
59148;DHT22;44930;52.878;6.168;2024-02-16T10:23:10;13.10;99.90
59148;DHT22;44930;52.878;6.168;2024-02-16T10:25:37;13.20;99.90
59148;DHT22;44930;52.878;6.168;2024-02-16T10:28:05;12.90;99.90
59148;DHT22;44930;52.878;6.168;2024-02-16T10:30:36;13.00;99.90
59148;DHT22;44930;52.878;6.168;2024-02-16T10:33:05;13.20;99.90
59148;DHT22;44930;52.878;6.168;2024-02-16T10:38:02;12.90;99.90
59148;DHT22;44930;52.878;6.168;2024-02-16T10:40:32;13.30;99.90
59148;DHT22;44930;52.878;6.168;2024-02-16T10:43:04;13.10;99.90
59148;DHT22;44930;52.878;6.168;2024-02-16T10:45:35;13.10;99.90
59148;DHT22;44930;52.878;6.168;2024-02-16T10:48:02;12.90;99.90
59148;DHT22;44930;52.878;6.168;2024-02-16T10:50:28;12.90;99.90
59148;DHT22;44930;52.878;6.168;2024-02-16T10:52:55;12.70;99.90
59148;DHT22;44930;52.878;6.168;2024-02-16T10:55:23;12.80;99.90
59148;DHT22;44930;52.878;6.168;2024-02-16T10:57:50;12.80;99.90
59148;DHT22;44930;52.878;6.168;2024-02-16T11:00:16;12.80;99.90
59148;DHT22;44930;52.878;6.168;2024-02-16T11:02:58;12.60;99.90
59148;DHT22;44930;52.878;6.168;2024-02-16T11:05:35;12.40;99.90
59148;DHT22;44930;52.878;6.168;2024-02-16T11:08:04;12.50;99.90
59148;DHT22;44930;52.878;6.168;2024-02-16T11:10:31;12.50;99.90
59148;DHT22;44930;52.878;6.168;2024-02-16T11:13:03;12.30;99.90
59148;DHT22;44930;52.878;6.168;2024-02-16T11:15:34;12.40;99.90
59148;DHT22;44930;52.878;6.168;2024-02-16T11:18:00;12.50;99.90
59148;DHT22;44930;52.878;6.168;2024-02-16T11:20:27;12.20;99.90
59148;DHT22;44930;52.878;6.168;2024-02-16T11:22:52;12.00;99.90
59148;DHT22;44930;52.878;6.168;2024-02-16T11:25:49;12.10;99.90
59148;DHT22;44930;52.878;6.168;2024-02-16T11:28:16;11.90;99.90
59148;DHT22;44930;52.878;6.168;2024-02-16T11:30:43;12.00;99.90
59148;DHT22;44930;52.878;6.168;2024-02-16T11:33:12;11.90;99.90
59148;DHT22;44930;52.878;6.168;2024-02-16T11:35:39;11.80;99.90
59148;DHT22;44930;52.878;6.168;2024-02-16T11:38:05;11.90;99.90
59148;DHT22;44930;52.878;6.168;2024-02-16T11:40:30;11.80;99.90
59148;DHT22;44930;52.878;6.168;2024-02-16T11:43:02;11.70;99.90
59148;DHT22;44930;52.878;6.168;2024-02-16T11:45:28;11.70;99.90
59148;DHT22;44930;52.878;6.168;2024-02-16T11:50:32;11.70;99.90
59148;DHT22;44930;52.878;6.168;2024-02-16T11:52:58;11.60;99.90
59148;DHT22;44930;52.878;6.168;2024-02-16T11:55:23;11.60;99.90
59148;DHT22;44930;52.878;6.168;2024-02-16T11:57:49;11.50;99.90
59148;DHT22;44930;52.878;6.168;2024-02-16T12:00:16;11.40;99.90
59148;DHT22;44930;52.878;6.168;2024-02-16T12:02:42;11.40;99.90
59148;DHT22;44930;52.878;6.168;2024-02-16T12:05:08;11.30;99.90
59148;DHT22;44930;52.878;6.168;2024-02-16T12:07:37;11.40;99.90
59148;DHT22;44930;52.878;6.168;2024-02-16T12:10:06;11.40;99.90
59148;DHT22;44930;52.878;6.168;2024-02-16T12:14:59;11.60;99.90
59148;DHT22;44930;52.878;6.168;2024-02-16T12:19:51;11.50;99.90
59148;DHT22;44930;52.878;6.168;2024-02-16T12:22:18;11.50;99.90
59148;DHT22;44930;52.878;6.168;2024-02-16T12:24:48;11.60;99.90
59148;DHT22;44930;52.878;6.168;2024-02-16T12:29:41;11.60;99.90
59148;DHT22;44930;52.878;6.168;2024-02-16T12:32:07;11.60;99.90
59148;DHT22;44930;52.878;6.168;2024-02-16T12:34:35;11.60;99.90
59148;DHT22;44930;52.878;6.168;2024-02-16T12:37:07;11.80;99.90
59148;DHT22;44930;52.878;6.168;2024-02-16T12:39:34;11.70;99.90
59148;DHT22;44930;52.878;6.168;2024-02-16T12:41:59;11.60;99.90
59148;DHT22;44930;52.878;6.168;2024-02-16T12:46:51;11.50;99.90
59148;DHT22;44930;52.878;6.168;2024-02-16T12:49:16;11.60;99.90
59148;DHT22;44930;52.878;6.168;2024-02-16T12:51:42;11.60;99.90
59148;DHT22;44930;52.878;6.168;2024-02-16T12:54:08;11.60;99.90
59148;DHT22;44930;52.878;6.168;2024-02-16T12:56:39;11.40;99.90
59148;DHT22;44930;52.878;6.168;2024-02-16T12:59:05;11.40;99.90
59148;DHT22;44930;52.878;6.168;2024-02-16T13:01:31;11.60;99.90
59148;DHT22;44930;52.878;6.168;2024-02-16T13:03:57;11.60;99.90
59148;DHT22;44930;52.878;6.168;2024-02-16T13:06:22;11.40;99.90
59148;DHT22;44930;52.878;6.168;2024-02-16T13:08:48;11.50;99.90
59148;DHT22;44930;52.878;6.168;2024-02-16T13:11:14;11.50;99.90
59148;DHT22;44930;52.878;6.168;2024-02-16T13:13:39;11.50;99.90
59148;DHT22;44930;52.878;6.168;2024-02-16T13:16:05;11.50;99.90
59148;DHT22;44930;52.878;6.168;2024-02-16T13:18:31;11.20;99.90
59148;DHT22;44930;52.878;6.168;2024-02-16T13:23:23;11.80;99.90
59148;DHT22;44930;52.878;6.168;2024-02-16T13:25:48;11.70;99.90
59148;DHT22;44930;52.878;6.168;2024-02-16T13:28:14;11.60;99.90
59148;DHT22;44930;52.878;6.168;2024-02-16T13:30:41;11.70;99.90
59148;DHT22;44930;52.878;6.168;2024-02-16T13:33:07;11.70;99.90
59148;DHT22;44930;52.878;6.168;2024-02-16T13:35:34;11.50;99.90
59148;DHT22;44930;52.878;6.168;2024-02-16T13:38:01;11.80;99.90
59148;DHT22;44930;52.878;6.168;2024-02-16T13:40:27;11.70;99.90
59148;DHT22;44930;52.878;6.168;2024-02-16T13:45:50;11.80;99.90
59148;DHT22;44930;52.878;6.168;2024-02-16T13:48:16;11.70;99.90
59148;DHT22;44930;52.878;6.168;2024-02-16T13:50:49;11.70;99.90
59148;DHT22;44930;52.878;6.168;2024-02-16T13:53:15;11.80;99.90
59148;DHT22;44930;52.878;6.168;2024-02-16T13:55:42;11.80;99.90
59148;DHT22;44930;52.878;6.168;2024-02-16T13:58:10;11.70;99.90
59148;DHT22;44930;52.878;6.168;2024-02-16T14:00:36;11.90;99.90
59148;DHT22;44930;52.878;6.168;2024-02-16T14:03:06;11.80;99.90
59148;DHT22;44930;52.878;6.168;2024-02-16T14:05:38;11.70;99.90
59148;DHT22;44930;52.878;6.168;2024-02-16T14:08:04;11.70;99.90
59148;DHT22;44930;52.878;6.168;2024-02-16T14:10:31;11.70;99.90
59148;DHT22;44930;52.878;6.168;2024-02-16T14:12:57;11.60;99.90
59148;DHT22;44930;52.878;6.168;2024-02-16T14:15:23;11.50;99.90
59148;DHT22;44930;52.878;6.168;2024-02-16T14:17:49;11.40;99.90
59148;DHT22;44930;52.878;6.168;2024-02-16T14:20:15;11.50;99.90
59148;DHT22;44930;52.878;6.168;2024-02-16T14:22:40;11.20;99.90
59148;DHT22;44930;52.878;6.168;2024-02-16T14:25:06;11.30;99.90
59148;DHT22;44930;52.878;6.168;2024-02-16T14:27:32;11.40;99.90
59148;DHT22;44930;52.878;6.168;2024-02-16T14:29:58;11.10;99.90
59148;DHT22;44930;52.878;6.168;2024-02-16T14:32:24;11.20;99.90
59148;DHT22;44930;52.878;6.168;2024-02-16T14:37:17;11.20;99.90
59148;DHT22;44930;52.878;6.168;2024-02-16T14:39:43;11.00;99.90
59148;DHT22;44930;52.878;6.168;2024-02-16T14:42:08;11.00;99.90
59148;DHT22;44930;52.878;6.168;2024-02-16T14:44:34;10.90;99.90
59148;DHT22;44930;52.878;6.168;2024-02-16T14:46:59;11.00;99.90
59148;DHT22;44930;52.878;6.168;2024-02-16T14:51:52;10.90;99.90
59148;DHT22;44930;52.878;6.168;2024-02-16T14:54:18;11.10;99.90
59148;DHT22;44930;52.878;6.168;2024-02-16T14:56:44;10.90;99.90
59148;DHT22;44930;52.878;6.168;2024-02-16T14:59:10;10.90;99.90
59148;DHT22;44930;52.878;6.168;2024-02-16T15:04:06;10.80;99.90
59148;DHT22;44930;52.878;6.168;2024-02-16T15:06:31;11.10;99.90
59148;DHT22;44930;52.878;6.168;2024-02-16T15:13:55;11.10;99.90
59148;DHT22;44930;52.878;6.168;2024-02-16T15:18:47;11.30;99.90
59148;DHT22;44930;52.878;6.168;2024-02-16T15:28:31;11.20;99.90
59148;DHT22;44930;52.878;6.168;2024-02-16T15:30:57;11.20;99.90
59148;DHT22;44930;52.878;6.168;2024-02-16T15:33:23;11.10;99.90
59148;DHT22;44930;52.878;6.168;2024-02-16T15:35:49;11.10;99.90
59148;DHT22;44930;52.878;6.168;2024-02-16T15:38:14;11.30;99.90
59148;DHT22;44930;52.878;6.168;2024-02-16T15:40:41;11.20;99.90
59148;DHT22;44930;52.878;6.168;2024-02-16T15:45:33;11.40;99.90
59148;DHT22;44930;52.878;6.168;2024-02-16T15:48:09;10.80;99.90
59148;DHT22;44930;52.878;6.168;2024-02-16T15:53:03;11.30;99.90
59148;DHT22;44930;52.878;6.168;2024-02-16T15:55:29;11.20;99.90
59148;DHT22;44930;52.878;6.168;2024-02-16T15:57:55;11.40;99.90
59148;DHT22;44930;52.878;6.168;2024-02-16T16:00:21;11.30;99.90
59148;DHT22;44930;52.878;6.168;2024-02-16T16:02:47;11.40;99.90
59148;DHT22;44930;52.878;6.168;2024-02-16T16:05:12;11.30;99.90
59148;DHT22;44930;52.878;6.168;2024-02-16T16:07:39;11.30;99.90
59148;DHT22;44930;52.878;6.168;2024-02-16T16:10:05;11.30;99.90
59148;DHT22;44930;52.878;6.168;2024-02-16T16:14:57;11.30;99.90
59148;DHT22;44930;52.878;6.168;2024-02-16T16:19:49;11.30;99.90
59148;DHT22;44930;52.878;6.168;2024-02-16T16:24:40;11.40;99.90
59148;DHT22;44930;52.878;6.168;2024-02-16T16:27:06;11.40;99.90
59148;DHT22;44930;52.878;6.168;2024-02-16T16:31:59;11.30;99.90
59148;DHT22;44930;52.878;6.168;2024-02-16T16:36:56;11.30;99.90
59148;DHT22;44930;52.878;6.168;2024-02-16T16:41:48;11.20;99.90
59148;DHT22;44930;52.878;6.168;2024-02-16T16:44:13;11.20;99.90
59148;DHT22;44930;52.878;6.168;2024-02-16T16:46:40;11.10;99.90
59148;DHT22;44930;52.878;6.168;2024-02-16T16:49:05;11.20;99.90
59148;DHT22;44930;52.878;6.168;2024-02-16T16:51:31;11.20;99.90
59148;DHT22;44930;52.878;6.168;2024-02-16T16:53:56;11.20;99.90
59148;DHT22;44930;52.878;6.168;2024-02-16T16:56:22;11.30;99.90
59148;DHT22;44930;52.878;6.168;2024-02-16T16:58:48;11.30;99.90
59148;DHT22;44930;52.878;6.168;2024-02-16T17:01:13;11.20;99.90
59148;DHT22;44930;52.878;6.168;2024-02-16T17:06:06;11.20;99.90
59148;DHT22;44930;52.878;6.168;2024-02-16T17:11:02;11.10;99.90
59148;DHT22;44930;52.878;6.168;2024-02-16T17:13:28;11.10;99.90
59148;DHT22;44930;52.878;6.168;2024-02-16T17:15:54;11.10;99.90
59148;DHT22;44930;52.878;6.168;2024-02-16T17:18:20;11.30;99.90
59148;DHT22;44930;52.878;6.168;2024-02-16T17:20:45;11.20;99.90
59148;DHT22;44930;52.878;6.168;2024-02-16T17:23:13;11.10;99.90
59148;DHT22;44930;52.878;6.168;2024-02-16T17:33:02;11.10;99.90
59148;DHT22;44930;52.878;6.168;2024-02-16T17:35:28;11.20;99.90
59148;DHT22;44930;52.878;6.168;2024-02-16T17:37:55;11.20;99.90
59148;DHT22;44930;52.878;6.168;2024-02-16T17:50:06;11.10;99.90
59148;DHT22;44930;52.878;6.168;2024-02-16T17:54:58;11.30;99.90
59148;DHT22;44930;52.878;6.168;2024-02-16T17:59:53;11.00;99.90